createdAt,value
2024-05-09T00:01:14.106Z,72.27
2024-05-09T00:03:47.347Z,68.08
2024-05-09T00:06:18.332Z,70.83
2024-05-09T00:08:49.255Z,75.01
2024-05-09T00:11:23.609Z,76.87
2024-05-09T00:13:54.752Z,74.53
2024-05-09T00:16:25.807Z,68.37
2024-05-09T00:18:56.840Z,62.09
2024-05-09T00:21:27.810Z,69.03
2024-05-09T00:24:01.073Z,67.47
2024-05-09T00:26:32.097Z,59.77
2024-05-09T00:29:03.139Z,65.07
2024-05-09T00:31:36.459Z,68.04
2024-05-09T00:34:07.538Z,68.64
2024-05-09T00:36:38.497Z,68.24
2024-05-09T00:39:09.478Z,71.17
2024-05-09T00:41:40.490Z,70.20
2024-05-09T00:44:11.546Z,68.80
2024-05-09T00:46:42.788Z,66.68
2024-05-09T00:49:15.212Z,76.62
2024-05-09T00:51:46.190Z,80.86
2024-05-09T00:54:19.816Z,77.47
2024-05-09T00:56:52.450Z,77.87
2024-05-09T00:59:23.659Z,73.31
2024-05-09T01:01:54.778Z,76.54
2024-05-09T01:04:28.458Z,79.47
2024-05-09T01:06:59.458Z,82.85
2024-05-09T01:09:30.487Z,80.30
2024-05-09T01:12:03.657Z,76.37
2024-05-09T01:14:37.240Z,75.71
2024-05-09T01:17:08.830Z,74.03
2024-05-09T01:19:42.262Z,76.47
2024-05-09T01:22:16.259Z,81.01
2024-05-09T01:24:49.624Z,70.13
2024-05-09T01:27:20.805Z,74.01
2024-05-09T01:29:51.799Z,76.79
2024-05-09T01:32:22.975Z,73.45
2024-05-09T01:34:54.140Z,71.93
2024-05-09T01:37:27.569Z,74.91
2024-05-09T01:40:01.875Z,78.59
2024-05-09T01:42:37.910Z,75.97
2024-05-09T01:45:12.265Z,67.15
2024-05-09T01:47:48.704Z,64.80
2024-05-09T01:50:28.985Z,74.20
2024-05-09T01:53:10.264Z,66.53
2024-05-09T01:55:42.183Z,67.06
2024-05-09T01:58:13.156Z,69.99
2024-05-09T02:00:46.412Z,70.47
2024-05-09T02:03:20.051Z,66.79
2024-05-09T02:05:51.596Z,73.23
2024-05-09T02:08:25.916Z,67.65
2024-05-09T02:10:56.918Z,77.10
2024-05-09T02:13:27.974Z,79.17
2024-05-09T02:16:03.977Z,73.49
2024-05-09T02:18:35.071Z,71.76
2024-05-09T02:21:06.946Z,72.13
2024-05-09T02:23:37.995Z,65.14
2024-05-09T02:26:09.143Z,66.81
2024-05-09T02:28:44.309Z,77.46
2024-05-09T02:31:16.274Z,71.60
2024-05-09T02:33:47.705Z,70.61
2024-05-09T02:36:20.141Z,79.33
2024-05-09T02:38:53.477Z,64.40
2024-05-09T02:41:27.036Z,69.75
2024-05-09T02:44:00.123Z,69.93
2024-05-09T02:46:35.384Z,73.66
2024-05-09T02:49:06.490Z,73.85
2024-05-09T02:51:37.528Z,66.30
2024-05-09T02:54:12.608Z,68.34
2024-05-09T02:56:46.053Z,68.16
2024-05-09T02:59:17.010Z,69.21
2024-05-09T03:01:53.929Z,70.14
2024-05-09T03:04:25.195Z,73.23
2024-05-09T03:06:58.417Z,69.91
2024-05-09T03:09:29.371Z,74.49
2024-05-09T03:12:00.413Z,70.44
2024-05-09T03:14:34.415Z,68.95
2024-05-09T03:17:08.233Z,69.08
2024-05-09T03:19:39.285Z,70.81
2024-05-09T03:22:12.422Z,71.03
2024-05-09T03:24:46.534Z,70.47
2024-05-09T03:27:19.978Z,72.95
2024-05-09T03:29:53.990Z,71.59
2024-05-09T03:32:25.025Z,81.35
2024-05-09T03:34:58.368Z,71.13
2024-05-09T03:37:29.330Z,70.87
2024-05-09T03:40:02.957Z,78.54
2024-05-09T03:42:33.996Z,72.12
2024-05-09T03:45:08.361Z,72.27
2024-05-09T03:47:39.488Z,73.15
2024-05-09T03:50:21.966Z,78.09
2024-05-09T03:52:56.908Z,76.03
2024-05-09T03:55:30.905Z,74.95
2024-05-09T03:58:01.901Z,74.29
2024-05-09T04:00:38.898Z,77.98
2024-05-09T04:03:13.854Z,76.35
2024-05-09T04:05:48.062Z,86.16
2024-05-09T04:08:22.010Z,84.06
2024-05-09T04:10:55.654Z,78.98
2024-05-09T04:13:28.944Z,87.26
2024-05-09T04:16:02.418Z,92.80
2024-05-09T04:18:33.421Z,90.81
2024-05-09T04:21:10.443Z,94.11
2024-05-09T04:23:44.301Z,98.55
2024-05-09T04:26:17.394Z,97.27
2024-05-09T04:28:50.788Z,93.73
2024-05-09T04:31:21.849Z,97.94
2024-05-09T04:33:55.526Z,92.97
2024-05-09T04:36:28.673Z,93.33
2024-05-09T04:39:02.656Z,91.42
2024-05-09T04:41:36.324Z,93.38
2024-05-09T04:44:07.288Z,86.51
2024-05-09T04:46:39.768Z,92.93
2024-05-09T04:49:10.744Z,92.47
2024-05-09T04:51:41.845Z,85.65
2024-05-09T04:54:26.118Z,84.60
2024-05-09T04:57:07.058Z,79.79
2024-05-09T04:59:38.084Z,89.61
2024-05-09T05:02:11.377Z,83.62
2024-05-09T05:04:42.573Z,79.13
2024-05-09T05:07:14.788Z,83.15
2024-05-09T05:09:46.766Z,88.05
2024-05-09T05:12:36.706Z,85.49
2024-05-09T05:15:07.883Z,87.20
2024-05-09T05:17:41.782Z,80.92
2024-05-09T05:20:24.347Z,81.54
2024-05-09T05:23:02.017Z,90.92
2024-05-09T05:25:33.104Z,93.79
2024-05-09T05:28:06.237Z,99.15
2024-05-09T05:30:40.467Z,95.33
2024-05-09T05:33:20.279Z,96.17
2024-05-09T05:35:51.524Z,92.59
2024-05-09T05:38:26.076Z,107.73
2024-05-09T05:41:00.995Z,104.24
2024-05-09T05:43:32.081Z,109.98
2024-05-09T05:46:06.041Z,111.94
2024-05-09T05:48:39.548Z,105.89
2024-05-09T05:51:10.749Z,111.08
2024-05-09T05:53:44.714Z,118.17
2024-05-09T05:56:15.805Z,109.06
2024-05-09T05:58:52.264Z,115.78
2024-05-09T06:01:23.273Z,131.89
2024-05-09T06:03:56.703Z,136.39
2024-05-09T06:06:27.891Z,136.27
2024-05-09T06:09:01.705Z,133.66
2024-05-09T06:11:35.186Z,145.56
2024-05-09T06:14:06.258Z,160.37
2024-05-09T06:16:39.955Z,162.13
2024-05-09T06:19:14.133Z,153.93
2024-05-09T06:21:45.274Z,146.54
2024-05-09T06:24:26.871Z,148.30
2024-05-09T06:27:01.222Z,155.22
2024-05-09T06:29:35.845Z,142.68
2024-05-09T06:32:09.328Z,142.53
2024-05-09T06:34:46.497Z,157.27
2024-05-09T06:37:20.546Z,146.07
2024-05-09T06:39:51.545Z,150.83
2024-05-09T06:42:22.595Z,151.73
2024-05-09T06:45:15.955Z,160.64
2024-05-09T06:47:49.918Z,161.38
2024-05-09T06:50:24.575Z,158.45
2024-05-09T06:53:03.739Z,154.35
2024-05-09T06:55:36.267Z,146.98
2024-05-09T06:58:11.191Z,156.18
2024-05-09T07:00:46.763Z,145.22
2024-05-09T07:03:19.191Z,145.57
2024-05-09T07:05:55.103Z,136.98
2024-05-09T07:08:31.078Z,142.53
2024-05-09T07:11:04.609Z,143.19
2024-05-09T07:13:38.416Z,147.44
2024-05-09T07:16:09.457Z,137.39
2024-05-09T07:18:40.930Z,139.68
2024-05-09T07:21:12.109Z,133.49
2024-05-09T07:23:45.393Z,131.79
2024-05-09T07:26:18.310Z,132.18
2024-05-09T07:28:49.368Z,135.60
2024-05-09T07:31:20.399Z,139.93
2024-05-09T07:33:51.520Z,138.09
2024-05-09T07:36:23.493Z,144.15
2024-05-09T07:38:54.412Z,137.52
2024-05-09T07:41:25.397Z,131.83
2024-05-09T07:43:56.472Z,137.89
2024-05-09T07:47:36.496Z,136.36
2024-05-09T07:51:31.617Z,128.59
2024-05-09T07:53:29.337Z,123.42
2024-05-09T07:55:04.800Z,119.11
2024-05-09T07:57:35.966Z,111.93
2024-05-09T08:00:08.327Z,124.81
2024-05-09T08:02:42.559Z,110.77
2024-05-09T08:05:13.667Z,110.10
2024-05-09T08:07:46.954Z,102.35
2024-05-09T08:10:22.178Z,104.91
2024-05-09T08:12:58.027Z,103.07
2024-05-09T08:15:29.795Z,108.27
2024-05-09T08:18:00.940Z,111.25
2024-05-09T08:20:35.216Z,101.52
2024-05-09T08:23:06.650Z,98.51
2024-05-09T08:25:39.785Z,103.62
2024-05-09T08:28:10.806Z,110.53
2024-05-09T08:30:41.947Z,102.47
2024-05-09T08:33:12.977Z,97.73
2024-05-09T08:35:44.035Z,98.27
2024-05-09T08:38:15.137Z,108.34
2024-05-09T08:40:49.747Z,110.71
2024-05-09T08:43:21.927Z,111.03
2024-05-09T08:45:53.015Z,106.29
2024-05-09T08:48:25.358Z,117.94
2024-05-09T08:50:59.287Z,117.61
2024-05-09T08:53:30.410Z,101.01
2024-05-09T08:56:03.773Z,116.76
2024-05-09T08:58:34.977Z,109.14
2024-05-09T09:01:09.380Z,104.61
2024-05-09T09:03:40.658Z,105.90
2024-05-09T09:06:15.120Z,111.34
2024-05-09T09:08:46.698Z,112.77
2024-05-09T09:11:17.682Z,110.07
2024-05-09T09:13:48.622Z,111.13
2024-05-09T09:16:19.786Z,109.14
2024-05-09T09:18:51.182Z,115.04
2024-05-09T09:21:22.208Z,106.94
2024-05-09T09:23:53.116Z,106.93
2024-05-09T09:26:24.752Z,95.69
2024-05-09T09:28:55.773Z,108.45
2024-05-09T09:31:26.756Z,109.27
2024-05-09T09:34:00.156Z,106.70
2024-05-09T09:36:33.008Z,98.81
2024-05-09T09:39:04.984Z,95.18
2024-05-09T09:41:39.234Z,97.64
2024-05-09T09:44:11.389Z,102.47
2024-05-09T09:46:43.001Z,89.93
2024-05-09T09:49:15.398Z,101.69
2024-05-09T09:51:48.220Z,90.23
2024-05-09T09:54:20.474Z,99.19
2024-05-09T09:56:53.562Z,96.00
2024-05-09T09:59:24.877Z,95.45
2024-05-09T10:01:56.042Z,91.10
2024-05-09T10:04:27.468Z,89.04
2024-05-09T10:07:05.344Z,85.15
2024-05-09T10:09:37.096Z,85.50
2024-05-09T10:12:18.125Z,84.99
2024-05-09T10:14:52.822Z,89.91
2024-05-09T10:17:23.862Z,79.68
2024-05-09T10:20:14.400Z,79.81
2024-05-09T10:22:52.098Z,74.23
2024-05-09T10:25:23.742Z,79.61
2024-05-09T10:27:57.678Z,79.64
2024-05-09T10:30:34.258Z,77.11
2024-05-09T10:33:12.196Z,83.31
2024-05-09T10:35:53.492Z,81.73
2024-05-09T10:38:24.599Z,72.96
2024-05-09T10:40:59.201Z,80.94
2024-05-09T10:43:30.497Z,79.62
2024-05-09T10:46:01.563Z,81.52
2024-05-09T10:48:33.010Z,75.43
2024-05-09T10:51:04.254Z,77.01
2024-05-09T10:53:42.764Z,76.47
2024-05-09T10:56:15.892Z,98.93
2024-05-09T10:58:48.118Z,92.43
2024-05-09T11:01:19.152Z,93.08
2024-05-09T11:03:51.096Z,100.12
2024-05-09T11:06:22.312Z,93.15
2024-05-09T11:08:53.940Z,97.29
2024-05-09T11:11:25.140Z,98.62
2024-05-09T11:13:56.089Z,94.95
2024-05-09T11:16:27.083Z,82.57
2024-05-09T11:18:59.529Z,82.50
2024-05-09T11:21:30.851Z,88.41
2024-05-09T11:24:01.789Z,92.11
2024-05-09T11:26:34.073Z,85.09
2024-05-09T11:29:04.979Z,85.14
2024-05-09T11:31:37.216Z,82.93
2024-05-09T11:34:08.260Z,87.02
2024-05-09T11:36:39.294Z,104.51
2024-05-09T11:39:10.562Z,103.57
2024-05-09T11:41:41.550Z,113.85
2024-05-09T11:44:13.144Z,109.49
2024-05-09T11:46:45.063Z,109.53
2024-05-09T11:49:16.103Z,116.51
2024-05-09T11:51:47.110Z,112.27
2024-05-09T11:54:18.379Z,110.08
2024-05-09T11:56:51.483Z,104.10
2024-05-09T11:59:22.423Z,108.37
2024-05-09T12:01:53.537Z,97.59
2024-05-09T12:04:25.701Z,105.08
2024-05-09T12:06:56.833Z,112.24
2024-05-09T12:09:27.850Z,107.52
2024-05-09T12:11:58.789Z,106.71
2024-05-09T12:14:29.790Z,105.10
2024-05-09T12:17:01.207Z,110.71
2024-05-09T12:19:32.371Z,100.40
2024-05-09T12:22:05.144Z,104.09
2024-05-09T12:24:36.195Z,111.92
2024-05-09T12:27:07.274Z,97.69
2024-05-09T12:29:38.967Z,100.15
2024-05-09T12:32:10.116Z,102.73
2024-05-09T12:34:41.139Z,106.87
2024-05-09T12:37:12.358Z,104.69
2024-05-09T12:39:43.366Z,105.65
2024-05-09T12:42:26.309Z,106.39
2024-05-09T12:44:59.014Z,104.82
2024-05-09T12:47:30.090Z,104.53
2024-05-09T12:50:01.269Z,109.84
2024-05-09T12:52:32.255Z,109.45
2024-05-09T12:55:03.233Z,107.81
2024-05-09T12:57:34.436Z,109.53
2024-05-09T13:00:05.863Z,114.19
2024-05-09T13:02:38.490Z,111.12
2024-05-09T13:05:10.435Z,112.57
2024-05-09T13:07:42.268Z,91.99
2024-05-09T13:10:19.753Z,111.87
2024-05-09T13:12:54.158Z,114.08
2024-05-09T13:15:25.128Z,110.31
2024-05-09T13:17:58.283Z,103.60
2024-05-09T13:20:34.088Z,108.23
2024-05-09T13:23:08.477Z,112.95
2024-05-09T13:25:39.955Z,118.98
2024-05-09T13:28:11.079Z,120.54
2024-05-09T13:30:42.588Z,122.45
2024-05-09T13:33:14.464Z,108.41
2024-05-09T13:35:49.637Z,123.96
2024-05-09T13:38:22.539Z,118.84
2024-05-09T13:40:53.599Z,114.34
2024-05-09T13:43:25.437Z,109.44
2024-05-09T13:45:57.949Z,102.07
2024-05-09T13:48:29.212Z,116.64
2024-05-09T13:51:00.337Z,113.85
2024-05-09T13:53:31.295Z,110.81
2024-05-09T13:56:02.300Z,108.43
2024-05-09T13:58:33.276Z,109.57
2024-05-09T14:01:04.406Z,104.79
2024-05-09T14:03:35.592Z,107.21
2024-05-09T14:06:09.446Z,111.50
2024-05-09T14:08:42.190Z,113.47
2024-05-09T14:11:13.184Z,109.60
2024-05-09T14:13:44.232Z,120.28
2024-05-09T14:16:15.691Z,116.41
2024-05-09T14:18:46.672Z,115.03
2024-05-09T14:21:17.665Z,122.55
2024-05-09T14:23:48.629Z,118.07
2024-05-09T14:26:19.895Z,113.65
2024-05-09T14:28:50.917Z,119.55
2024-05-09T14:31:22.961Z,127.40
2024-05-09T14:33:54.123Z,127.48
2024-05-09T14:36:25.234Z,121.86
2024-05-09T14:38:56.239Z,120.23
2024-05-09T14:41:27.157Z,114.21
2024-05-09T14:43:58.137Z,125.43
2024-05-09T14:46:29.313Z,122.47
2024-05-09T14:49:00.548Z,115.94
2024-05-09T14:51:31.613Z,126.70
2024-05-09T14:54:02.531Z,124.75
2024-05-09T14:56:33.710Z,107.29
2024-05-09T14:59:04.638Z,114.63
2024-05-09T15:01:35.636Z,111.97
2024-05-09T15:04:06.803Z,117.27
2024-05-09T15:06:40.974Z,117.90
2024-05-09T15:09:11.918Z,115.21
2024-05-09T15:11:43.908Z,108.89
2024-05-09T15:14:15.813Z,107.09
2024-05-09T15:16:48.512Z,111.02
2024-05-09T15:19:19.759Z,106.97
2024-05-09T15:21:50.849Z,94.39
2024-05-09T15:24:21.837Z,109.95
2024-05-09T15:26:52.769Z,116.74
2024-05-09T15:29:23.751Z,118.44
2024-05-09T15:31:54.684Z,109.83
2024-05-09T15:34:25.686Z,108.51
2024-05-09T15:36:56.764Z,109.05
2024-05-09T15:39:30.236Z,113.47
2024-05-09T15:42:01.287Z,113.93
2024-05-09T15:44:32.314Z,99.07
2024-05-09T15:47:03.234Z,95.05
2024-05-09T15:49:34.506Z,83.06
2024-05-09T15:52:05.597Z,97.54
2024-05-09T15:54:36.737Z,102.01
2024-05-09T15:57:08.409Z,111.96
2024-05-09T15:59:39.868Z,109.88
2024-05-09T16:02:11.551Z,115.87
2024-05-09T16:04:43.002Z,119.64
2024-05-09T16:07:14.270Z,112.83
2024-05-09T16:09:45.419Z,119.41
2024-05-09T16:12:16.362Z,114.97
2024-05-09T16:14:47.421Z,120.13
2024-05-09T16:17:18.708Z,117.11
2024-05-09T16:19:50.056Z,124.37
2024-05-09T16:22:21.075Z,127.65
2024-05-09T16:24:52.223Z,126.70
2024-05-09T16:27:23.176Z,122.26
2024-05-09T16:29:58.000Z,125.97
2024-05-09T16:32:28.972Z,128.91
2024-05-09T16:35:00.096Z,131.45
2024-05-09T16:37:31.125Z,131.07
2024-05-09T16:40:02.128Z,144.05
2024-05-09T16:42:33.376Z,128.93
2024-05-09T16:45:04.505Z,133.87
2024-05-09T16:47:35.774Z,141.90
2024-05-09T16:50:08.573Z,132.71
2024-05-09T16:52:39.726Z,140.97
2024-05-09T16:55:10.854Z,137.65
2024-05-09T16:57:42.324Z,153.00
2024-05-09T17:00:21.928Z,143.40
2024-05-09T17:03:01.138Z,162.27
2024-05-09T17:05:32.333Z,159.35
2024-05-09T17:08:03.442Z,161.35
2024-05-09T17:10:35.944Z,158.81
2024-05-09T17:13:08.288Z,146.79
2024-05-09T17:15:39.524Z,166.72
2024-05-09T17:18:11.096Z,175.12
2024-05-09T17:20:42.098Z,173.86
2024-05-09T17:23:14.087Z,170.25
2024-05-09T17:25:45.632Z,172.37
2024-05-09T17:28:16.808Z,169.24
2024-05-09T17:30:48.509Z,165.91
2024-05-09T17:33:19.712Z,168.65
2024-05-09T17:35:51.790Z,158.77
2024-05-09T17:38:23.678Z,171.03
2024-05-09T17:40:54.886Z,153.17
2024-05-09T17:43:26.027Z,157.39
2024-05-09T17:45:57.024Z,174.53
2024-05-09T17:48:28.197Z,171.95
2024-05-09T17:50:59.560Z,169.71
2024-05-09T17:53:30.469Z,179.77
2024-05-09T17:56:02.209Z,174.71
2024-05-09T17:58:33.223Z,175.48
2024-05-09T18:01:04.417Z,183.45
2024-05-09T18:03:35.621Z,184.26
2024-05-09T18:06:06.848Z,201.57
2024-05-09T18:08:37.889Z,199.23
2024-05-09T18:11:09.442Z,197.64
2024-05-09T18:13:40.421Z,182.33
2024-05-09T18:16:11.455Z,189.44
2024-05-09T18:18:42.819Z,187.48
2024-05-09T18:21:13.948Z,196.29
2024-05-09T18:23:44.907Z,180.23
2024-05-09T18:26:15.946Z,193.11
2024-05-09T18:28:47.306Z,202.22
2024-05-09T18:31:18.333Z,211.41
2024-05-09T18:33:49.456Z,197.56
2024-05-09T18:36:20.666Z,197.81
2024-05-09T18:38:51.643Z,206.41
2024-05-09T18:41:22.593Z,188.21
2024-05-09T18:43:56.040Z,194.42
2024-05-09T18:46:27.545Z,202.55
2024-05-09T18:48:58.615Z,186.13
2024-05-09T18:51:29.647Z,203.05
2024-05-09T18:54:00.582Z,195.64
2024-05-09T18:56:31.570Z,197.25
2024-05-09T18:59:02.480Z,201.99
2024-05-09T19:01:33.752Z,204.12
2024-05-09T19:04:05.072Z,198.22
2024-05-09T19:06:37.637Z,194.00
2024-05-09T19:09:08.598Z,208.12
2024-05-09T19:11:40.087Z,188.55
2024-05-09T19:14:11.358Z,196.29
2024-05-09T19:16:42.381Z,197.95
2024-05-09T19:19:14.946Z,199.62
2024-05-09T19:21:46.128Z,213.91
2024-05-09T19:24:17.222Z,195.15
2024-05-09T19:26:49.027Z,203.08
2024-05-09T19:29:19.970Z,210.93
2024-05-09T19:31:50.964Z,205.72
2024-05-09T19:34:24.407Z,200.01
2024-05-09T19:36:55.650Z,218.59
2024-05-09T19:39:26.681Z,202.63
2024-05-09T19:41:57.630Z,205.95
2024-05-09T19:44:28.562Z,214.51
2024-05-09T19:46:59.564Z,214.87
2024-05-09T19:49:31.953Z,218.61
2024-05-09T19:52:03.005Z,200.29
2024-05-09T19:54:34.052Z,184.13
2024-05-09T19:57:05.138Z,191.03
2024-05-09T19:59:36.065Z,193.42
2024-05-09T20:02:07.241Z,197.77
2024-05-09T20:04:45.587Z,177.61
2024-05-09T20:07:16.825Z,172.19
2024-05-09T20:09:47.956Z,181.55
2024-05-09T20:12:18.920Z,182.27
2024-05-09T20:14:49.914Z,178.96
2024-05-09T20:17:20.828Z,191.25
2024-05-09T20:19:51.812Z,202.22
2024-05-09T20:22:22.884Z,203.49
2024-05-09T20:24:53.894Z,201.84
2024-05-09T20:27:24.981Z,207.67
2024-05-09T20:29:55.965Z,197.90
2024-05-09T20:32:27.000Z,221.53
2024-05-09T20:34:59.045Z,211.39
2024-05-09T20:37:30.031Z,225.34
2024-05-09T20:40:01.066Z,240.83
2024-05-09T20:42:32.017Z,225.90
2024-05-09T20:45:03.408Z,217.63
2024-05-09T20:47:34.445Z,217.00
2024-05-09T20:50:11.354Z,217.15
2024-05-09T20:52:47.304Z,229.68
2024-05-09T20:55:18.338Z,215.95
2024-05-09T20:57:49.370Z,224.01
2024-05-09T21:00:26.167Z,233.80
2024-05-09T21:03:05.720Z,224.37
2024-05-09T21:05:39.184Z,233.51
2024-05-09T21:08:10.655Z,231.83
2024-05-09T21:10:41.872Z,217.52
2024-05-09T21:13:13.492Z,219.97
2024-05-09T21:15:44.710Z,202.69
2024-05-09T21:18:15.759Z,206.75
2024-05-09T21:20:46.724Z,216.39
2024-05-09T21:23:17.679Z,216.73
2024-05-09T21:25:48.768Z,223.76
2024-05-09T21:28:19.848Z,233.63
2024-05-09T21:30:50.954Z,220.68
2024-05-09T21:33:22.180Z,229.47
2024-05-09T21:35:53.388Z,216.27
2024-05-09T21:38:24.337Z,206.71
2024-05-09T21:40:58.095Z,207.45
2024-05-09T21:43:31.443Z,211.81
2024-05-09T21:46:02.706Z,209.65
2024-05-09T21:48:34.092Z,212.65
2024-05-09T21:51:05.916Z,229.87
2024-05-09T21:53:37.892Z,202.23
2024-05-09T21:56:10.566Z,226.01
2024-05-09T21:58:41.532Z,190.25
2024-05-09T22:01:12.601Z,181.23
2024-05-09T22:03:43.701Z,189.00
2024-05-09T22:06:14.699Z,206.94
2024-05-09T22:08:45.634Z,205.32
2024-05-09T22:11:16.580Z,196.87
2024-05-09T22:13:49.832Z,199.45
2024-05-09T22:16:20.855Z,185.15
2024-05-09T22:18:51.915Z,189.94
2024-05-09T22:21:22.938Z,185.51
2024-05-09T22:23:54.480Z,196.14
2024-05-09T22:26:25.483Z,194.53
2024-05-09T22:28:56.458Z,183.49
2024-05-09T22:31:27.583Z,188.29
2024-05-09T22:33:58.852Z,189.71
2024-05-09T22:36:30.129Z,176.16
2024-05-09T22:39:01.084Z,187.79
2024-05-09T22:41:32.006Z,173.58
2024-05-09T22:44:02.933Z,169.01
2024-05-09T22:46:34.058Z,176.80
2024-05-09T22:49:05.428Z,160.81
2024-05-09T22:51:36.466Z,174.91
2024-05-09T22:54:07.743Z,192.54
2024-05-09T22:56:39.831Z,184.28
2024-05-09T22:59:10.884Z,186.28
2024-05-09T23:01:41.936Z,183.11
2024-05-09T23:04:13.004Z,181.40
2024-05-09T23:06:44.246Z,187.39
2024-05-09T23:09:15.268Z,169.01
2024-05-09T23:11:48.674Z,181.46
2024-05-09T23:14:19.646Z,164.41
2024-05-09T23:16:50.631Z,183.97
2024-05-09T23:19:21.694Z,188.23
2024-05-09T23:21:52.663Z,176.85
2024-05-09T23:24:23.623Z,190.62
2024-05-09T23:26:54.602Z,178.45
2024-05-09T23:29:25.588Z,182.05
2024-05-09T23:31:56.523Z,191.13
2024-05-09T23:34:27.756Z,185.94
2024-05-09T23:36:58.869Z,203.56
2024-05-09T23:39:29.842Z,200.64
2024-05-09T23:42:00.766Z,208.51
2024-05-09T23:44:31.720Z,206.49
2024-05-09T23:47:02.670Z,198.24
2024-05-09T23:49:33.796Z,207.21
2024-05-09T23:52:04.876Z,213.81
2024-05-09T23:54:35.932Z,210.67
2024-05-09T23:57:06.980Z,203.11
2024-05-09T23:59:37.973Z,215.69
